Zaragoza Airport

Airport
ICAO code: 
LEZG
IATA Code: 
ZAZ
Summary
ICAO Region: 
EUR
Territory: 
Location: 
Zaragoza,
Serving: 
Zaragoza
Elevation: 
863 ft
Coordinates: 
Aerial View: 
41° 39' 48.702" N, 1° 0' 40.938" W
Metar
Observation
LEZG 221100Z 32006KT 290V350 CAVOK 05/M03 Q1032
Station
Zaragoza / Aeropuerto
Date/Time
2022-01-22 11:00:00
Wind direction
320°
Wind speed
06 kts
Lowest cloud amount
clouds and visibility OK
Temperature
5°C
Dew point
-3°C
Humidity
56%
QNH
1032 hPa
Weather condition
n/a

Description

Zaragoza Airport is a commercial airport near Zaragoza, Spain. It is located 16 km west of Zaragoza, 270 km west of Barcelona, and 262 km northeast of Madrid.

Climatology

Cold Semi-arid climate (Köppen climate classification BSk). - Hot, sometimes extremely hot summers and cold, sometimes very cold winters. Some snowfall during the winter. Areas featuring cold semi-arid climates are sometimes subject to major temperature swings during a 24 hour period.

Runways

Designator Length Width Surface Rops
12L/30R 3000 45 ASP Yes/Yes
12R/30L 3718 45 ASP Yes/Yes
Airport map: 
Aerial View: 

Accidents and Serious Incidents at or in the vicinity of LEZG

SKYbrary Partners:

Safety knowledge contributed by: